Churchill Airport
CYYQ : rendu visible

Aérodrome :











RETROUVEZ-NOUS SUR...

 
LOGIN :

S'inscrire | Disclaimer

   EN    FR    IT 

 









Légende :    VFR   VFR Marginal   IFR   IFR Intensif   IFR Très Intensif
Visi : 
Plafond : 
>= 8 km
>= 3000ft
5 à 8 km
1000 à 3000 ft
1500m à 5 km
500 à 1000 ft
800 à 1500m
200 à 500 ft
< 800m
< 200 ft
Symboles :   Orages  Brouillard  Fortes neiges  Fortes précipitations  Vent > 20 kt






- Altitude de l'aérodrome : 94 ft
- Code IATA : YYQ


CYYQ - Churchill

DERNIER METAR :
  • 251700Z 34010KT 15SM FEW011 BKN023 BKN100 02/M01 A2995 RMK SF1SC5AC1 SF TR SLP147

METARs EXPIRÉS :
  • 251600Z 33010G15KT 15SM FEW011 BKN022 BKN100 01/M02 A2994 RMK SF1SC6AC1 SF TR SLP144
  • 251500Z 32009KT 15SM FEW011 SCT016 01/M01 A2993 RMK SC1SC6 SLP140

TAF TAF CYYQ
Valide du 25 à 12h jusqu'au 26 à 12h UTC


251138Z 2512/2612 32010KT P6SM OVC025
TEMPO 2512/2522 4SM -SN BR BKN012 OVC020
FM252200 35010KT P6SM SCT020
TEMPO 2522/2606 BKN020
FM260600 08008KT P6SM OVC015
TEMPO 2606/2612 OVC008 RMK NXT FCST BY 251800Z
FIR CZWG / Amérique du Nord



MET'MAP, la Météo Aéronautique d'un coup d'oeil ! - Copyright ORBIFLY Décembre 2007 - Disclaimer

ORBIFLY MET'MAP TEAM :

Programmation & Développement : Alexandra Zaïnal
Sur une idée originale de : Baudouin d'Aumeries
Assistance à la programmation : Marc-Olivier Méhu
Soutien technique & logistique : Manuel Goepfert

Contact : metmap@orbifly.com




SOURCES & CREDITS :

   NOAA       Earth
Advisory